sensor_id;sensor_type;location;lat;lon;timestamp;temperature;humidity
19952;DHT22;10137;49.406;19.484;2023-06-14T00:01:02;7.30;99.90
19952;DHT22;10137;49.406;19.484;2023-06-14T00:03:31;7.30;99.90
19952;DHT22;10137;49.406;19.484;2023-06-14T00:06:01;7.40;99.90
19952;DHT22;10137;49.406;19.484;2023-06-14T00:08:29;7.40;99.90
19952;DHT22;10137;49.406;19.484;2023-06-14T00:10:57;7.40;99.90
19952;DHT22;10137;49.406;19.484;2023-06-14T00:13:25;7.40;99.90
19952;DHT22;10137;49.406;19.484;2023-06-14T00:15:53;7.40;99.90
19952;DHT22;10137;49.406;19.484;2023-06-14T00:18:21;7.30;99.90
19952;DHT22;10137;49.406;19.484;2023-06-14T00:20:51;7.30;99.90
19952;DHT22;10137;49.406;19.484;2023-06-14T00:23:19;7.30;99.90
19952;DHT22;10137;49.406;19.484;2023-06-14T00:25:47;7.40;99.90
19952;DHT22;10137;49.406;19.484;2023-06-14T00:28:15;7.20;99.90
19952;DHT22;10137;49.406;19.484;2023-06-14T00:30:42;7.10;99.90
19952;DHT22;10137;49.406;19.484;2023-06-14T00:33:10;7.00;99.90
19952;DHT22;10137;49.406;19.484;2023-06-14T00:35:38;7.00;99.90
19952;DHT22;10137;49.406;19.484;2023-06-14T00:38:06;7.00;99.90
19952;DHT22;10137;49.406;19.484;2023-06-14T00:40:35;6.90;99.90
19952;DHT22;10137;49.406;19.484;2023-06-14T00:43:02;6.90;99.90
19952;DHT22;10137;49.406;19.484;2023-06-14T00:45:29;6.80;99.90
19952;DHT22;10137;49.406;19.484;2023-06-14T00:48:02;6.80;99.90
19952;DHT22;10137;49.406;19.484;2023-06-14T00:50:30;6.70;99.90
19952;DHT22;10137;49.406;19.484;2023-06-14T00:52:58;6.60;99.90
19952;DHT22;10137;49.406;19.484;2023-06-14T00:55:27;6.60;99.90
19952;DHT22;10137;49.406;19.484;2023-06-14T00:57:56;6.60;99.90
19952;DHT22;10137;49.406;19.484;2023-06-14T01:00:25;6.50;99.90
19952;DHT22;10137;49.406;19.484;2023-06-14T01:02:55;6.50;99.90
19952;DHT22;10137;49.406;19.484;2023-06-14T01:05:24;6.50;99.90
19952;DHT22;10137;49.406;19.484;2023-06-14T01:08:05;6.50;99.90
19952;DHT22;10137;49.406;19.484;2023-06-14T01:10:40;6.50;99.90
19952;DHT22;10137;49.406;19.484;2023-06-14T01:13:21;6.50;99.90
19952;DHT22;10137;49.406;19.484;2023-06-14T01:15:51;6.60;99.90
19952;DHT22;10137;49.406;19.484;2023-06-14T01:18:19;6.70;99.90
19952;DHT22;10137;49.406;19.484;2023-06-14T01:20:47;6.80;99.90
19952;DHT22;10137;49.406;19.484;2023-06-14T01:23:17;6.90;99.90
19952;DHT22;10137;49.406;19.484;2023-06-14T01:25:45;7.00;99.90
19952;DHT22;10137;49.406;19.484;2023-06-14T01:28:13;7.10;99.90
19952;DHT22;10137;49.406;19.484;2023-06-14T01:30:45;6.90;99.90
19952;DHT22;10137;49.406;19.484;2023-06-14T01:33:16;6.90;99.90
19952;DHT22;10137;49.406;19.484;2023-06-14T01:35:47;7.00;99.90
19952;DHT22;10137;49.406;19.484;2023-06-14T01:38:15;6.90;99.90
19952;DHT22;10137;49.406;19.484;2023-06-14T01:40:44;7.10;99.90
19952;DHT22;10137;49.406;19.484;2023-06-14T01:43:13;7.10;99.90
19952;DHT22;10137;49.406;19.484;2023-06-14T01:45:41;7.10;99.90
19952;DHT22;10137;49.406;19.484;2023-06-14T01:48:09;7.00;99.90
19952;DHT22;10137;49.406;19.484;2023-06-14T01:50:37;6.90;99.90
19952;DHT22;10137;49.406;19.484;2023-06-14T01:53:06;6.80;99.90
19952;DHT22;10137;49.406;19.484;2023-06-14T01:55:34;6.90;99.90
19952;DHT22;10137;49.406;19.484;2023-06-14T01:58:05;6.80;99.90
19952;DHT22;10137;49.406;19.484;2023-06-14T02:00:33;6.90;99.90
19952;DHT22;10137;49.406;19.484;2023-06-14T02:03:02;7.00;99.90
19952;DHT22;10137;49.406;19.484;2023-06-14T02:05:29;6.90;99.90
19952;DHT22;10137;49.406;19.484;2023-06-14T02:07:56;6.90;99.90
19952;DHT22;10137;49.406;19.484;2023-06-14T02:10:23;6.80;99.90
19952;DHT22;10137;49.406;19.484;2023-06-14T02:12:51;6.80;99.90
19952;DHT22;10137;49.406;19.484;2023-06-14T02:15:19;6.90;99.90
19952;DHT22;10137;49.406;19.484;2023-06-14T02:17:48;7.10;99.90
19952;DHT22;10137;49.406;19.484;2023-06-14T02:20:16;7.10;99.90
19952;DHT22;10137;49.406;19.484;2023-06-14T02:22:45;7.00;99.90
19952;DHT22;10137;49.406;19.484;2023-06-14T02:25:12;6.90;99.90
19952;DHT22;10137;49.406;19.484;2023-06-14T02:27:39;6.90;99.90
19952;DHT22;10137;49.406;19.484;2023-06-14T02:30:08;6.90;99.90
19952;DHT22;10137;49.406;19.484;2023-06-14T02:32:38;6.90;99.90
19952;DHT22;10137;49.406;19.484;2023-06-14T02:35:08;7.00;99.90
19952;DHT22;10137;49.406;19.484;2023-06-14T02:37:35;7.00;99.90
19952;DHT22;10137;49.406;19.484;2023-06-14T02:40:04;7.00;99.90
19952;DHT22;10137;49.406;19.484;2023-06-14T02:42:31;7.10;99.90
19952;DHT22;10137;49.406;19.484;2023-06-14T02:44:59;7.20;99.90
19952;DHT22;10137;49.406;19.484;2023-06-14T02:47:28;7.30;99.90
19952;DHT22;10137;49.406;19.484;2023-06-14T02:49:57;7.30;99.90
19952;DHT22;10137;49.406;19.484;2023-06-14T02:52:25;7.30;99.90
19952;DHT22;10137;49.406;19.484;2023-06-14T02:54:52;7.30;99.90
19952;DHT22;10137;49.406;19.484;2023-06-14T02:57:21;7.40;99.90
19952;DHT22;10137;49.406;19.484;2023-06-14T02:59:50;7.50;99.90
19952;DHT22;10137;49.406;19.484;2023-06-14T03:02:18;7.50;99.90
19952;DHT22;10137;49.406;19.484;2023-06-14T03:04:48;7.60;99.90
19952;DHT22;10137;49.406;19.484;2023-06-14T03:07:21;7.60;99.90
19952;DHT22;10137;49.406;19.484;2023-06-14T03:09:50;7.50;99.90
19952;DHT22;10137;49.406;19.484;2023-06-14T03:12:16;7.40;99.90
19952;DHT22;10137;49.406;19.484;2023-06-14T03:14:43;7.50;99.90
19952;DHT22;10137;49.406;19.484;2023-06-14T03:17:11;7.50;99.90
19952;DHT22;10137;49.406;19.484;2023-06-14T03:19:38;7.50;99.90
19952;DHT22;10137;49.406;19.484;2023-06-14T03:22:06;7.40;99.90
19952;DHT22;10137;49.406;19.484;2023-06-14T03:24:36;7.40;99.90
19952;DHT22;10137;49.406;19.484;2023-06-14T03:27:03;7.40;99.90
19952;DHT22;10137;49.406;19.484;2023-06-14T03:29:32;7.50;99.90
19952;DHT22;10137;49.406;19.484;2023-06-14T03:32:02;7.60;99.90
19952;DHT22;10137;49.406;19.484;2023-06-14T03:34:30;7.70;99.90
19952;DHT22;10137;49.406;19.484;2023-06-14T03:36:57;7.70;99.90
19952;DHT22;10137;49.406;19.484;2023-06-14T03:39:26;7.70;99.90
19952;DHT22;10137;49.406;19.484;2023-06-14T03:41:54;7.70;99.90
19952;DHT22;10137;49.406;19.484;2023-06-14T03:44:22;7.80;99.90
19952;DHT22;10137;49.406;19.484;2023-06-14T03:46:50;7.80;99.90
19952;DHT22;10137;49.406;19.484;2023-06-14T03:49:19;7.80;99.90
19952;DHT22;10137;49.406;19.484;2023-06-14T03:51:46;7.80;99.90
19952;DHT22;10137;49.406;19.484;2023-06-14T03:54:17;7.90;99.90
19952;DHT22;10137;49.406;19.484;2023-06-14T03:56:44;7.90;99.90
19952;DHT22;10137;49.406;19.484;2023-06-14T03:59:15;7.90;99.90
19952;DHT22;10137;49.406;19.484;2023-06-14T04:01:44;7.80;99.90
19952;DHT22;10137;49.406;19.484;2023-06-14T04:04:12;7.90;99.90
19952;DHT22;10137;49.406;19.484;2023-06-14T04:06:44;7.90;99.90
19952;DHT22;10137;49.406;19.484;2023-06-14T04:09:14;8.00;99.90
19952;DHT22;10137;49.406;19.484;2023-06-14T04:11:43;8.10;99.90
19952;DHT22;10137;49.406;19.484;2023-06-14T04:14:11;8.20;99.90
19952;DHT22;10137;49.406;19.484;2023-06-14T04:16:40;8.20;99.90
19952;DHT22;10137;49.406;19.484;2023-06-14T04:19:07;8.30;99.90
19952;DHT22;10137;49.406;19.484;2023-06-14T04:21:34;8.30;99.90
19952;DHT22;10137;49.406;19.484;2023-06-14T04:24:04;8.30;99.90
19952;DHT22;10137;49.406;19.484;2023-06-14T04:26:33;8.40;99.90
19952;DHT22;10137;49.406;19.484;2023-06-14T04:29:02;8.40;99.90
19952;DHT22;10137;49.406;19.484;2023-06-14T04:31:30;8.30;99.90
19952;DHT22;10137;49.406;19.484;2023-06-14T04:34:01;8.30;99.90
19952;DHT22;10137;49.406;19.484;2023-06-14T04:36:31;8.40;99.90
19952;DHT22;10137;49.406;19.484;2023-06-14T04:39:01;8.30;99.90
19952;DHT22;10137;49.406;19.484;2023-06-14T04:41:29;8.30;99.90
19952;DHT22;10137;49.406;19.484;2023-06-14T04:44:01;8.30;99.90
19952;DHT22;10137;49.406;19.484;2023-06-14T04:46:30;8.50;99.90
19952;DHT22;10137;49.406;19.484;2023-06-14T04:49:00;8.50;99.90
19952;DHT22;10137;49.406;19.484;2023-06-14T04:51:30;8.50;99.90
19952;DHT22;10137;49.406;19.484;2023-06-14T04:53:59;8.60;99.90
19952;DHT22;10137;49.406;19.484;2023-06-14T04:56:28;8.60;99.90
19952;DHT22;10137;49.406;19.484;2023-06-14T04:58:58;8.60;99.90
19952;DHT22;10137;49.406;19.484;2023-06-14T05:01:28;8.60;99.90
19952;DHT22;10137;49.406;19.484;2023-06-14T05:03:57;8.60;99.90
19952;DHT22;10137;49.406;19.484;2023-06-14T05:06:25;8.60;99.90
19952;DHT22;10137;49.406;19.484;2023-06-14T05:08:54;8.70;99.90
19952;DHT22;10137;49.406;19.484;2023-06-14T05:11:21;8.80;99.90
19952;DHT22;10137;49.406;19.484;2023-06-14T05:13:50;8.70;99.90
19952;DHT22;10137;49.406;19.484;2023-06-14T05:16:19;8.70;99.90
19952;DHT22;10137;49.406;19.484;2023-06-14T05:18:50;8.80;99.90
19952;DHT22;10137;49.406;19.484;2023-06-14T05:21:18;8.70;99.90
19952;DHT22;10137;49.406;19.484;2023-06-14T05:23:48;8.70;99.90
19952;DHT22;10137;49.406;19.484;2023-06-14T05:26:17;8.80;99.90
19952;DHT22;10137;49.406;19.484;2023-06-14T05:28:45;8.90;99.90
19952;DHT22;10137;49.406;19.484;2023-06-14T05:31:14;9.00;99.90
19952;DHT22;10137;49.406;19.484;2023-06-14T05:33:42;9.10;99.90
19952;DHT22;10137;49.406;19.484;2023-06-14T05:36:09;9.10;99.90
19952;DHT22;10137;49.406;19.484;2023-06-14T05:38:36;9.20;99.90
19952;DHT22;10137;49.406;19.484;2023-06-14T05:41:04;9.20;99.90
19952;DHT22;10137;49.406;19.484;2023-06-14T05:43:31;9.30;99.90
19952;DHT22;10137;49.406;19.484;2023-06-14T05:45:58;9.40;99.90
19952;DHT22;10137;49.406;19.484;2023-06-14T05:48:25;9.40;99.90
19952;DHT22;10137;49.406;19.484;2023-06-14T05:50:52;9.40;99.90
19952;DHT22;10137;49.406;19.484;2023-06-14T05:53:19;9.50;99.90
19952;DHT22;10137;49.406;19.484;2023-06-14T05:55:46;9.60;99.90
19952;DHT22;10137;49.406;19.484;2023-06-14T05:58:14;9.60;99.90
19952;DHT22;10137;49.406;19.484;2023-06-14T06:00:42;9.70;99.90
19952;DHT22;10137;49.406;19.484;2023-06-14T06:03:08;9.70;99.90
19952;DHT22;10137;49.406;19.484;2023-06-14T06:05:36;9.80;99.90
19952;DHT22;10137;49.406;19.484;2023-06-14T06:08:04;9.80;99.90
19952;DHT22;10137;49.406;19.484;2023-06-14T06:10:32;9.80;99.90
19952;DHT22;10137;49.406;19.484;2023-06-14T06:12:59;9.90;99.90
19952;DHT22;10137;49.406;19.484;2023-06-14T06:15:27;10.00;99.90
19952;DHT22;10137;49.406;19.484;2023-06-14T06:17:55;10.10;99.90
19952;DHT22;10137;49.406;19.484;2023-06-14T06:20:22;10.10;99.90
19952;DHT22;10137;49.406;19.484;2023-06-14T06:22:53;10.20;99.90
19952;DHT22;10137;49.406;19.484;2023-06-14T06:25:20;10.20;99.90
19952;DHT22;10137;49.406;19.484;2023-06-14T06:27:51;10.30;99.90
19952;DHT22;10137;49.406;19.484;2023-06-14T06:30:18;10.40;99.90
19952;DHT22;10137;49.406;19.484;2023-06-14T06:32:47;10.40;99.90
19952;DHT22;10137;49.406;19.484;2023-06-14T06:35:14;10.50;99.90
19952;DHT22;10137;49.406;19.484;2023-06-14T06:37:42;10.60;99.90
19952;DHT22;10137;49.406;19.484;2023-06-14T06:40:09;10.70;99.90
19952;DHT22;10137;49.406;19.484;2023-06-14T06:42:36;10.80;99.90
19952;DHT22;10137;49.406;19.484;2023-06-14T06:45:04;10.90;99.90
19952;DHT22;10137;49.406;19.484;2023-06-14T06:47:31;10.90;99.90
19952;DHT22;10137;49.406;19.484;2023-06-14T06:49:59;10.90;99.90
19952;DHT22;10137;49.406;19.484;2023-06-14T06:52:27;11.00;99.90
19952;DHT22;10137;49.406;19.484;2023-06-14T06:54:54;11.10;99.90
19952;DHT22;10137;49.406;19.484;2023-06-14T06:57:22;11.20;99.90
19952;DHT22;10137;49.406;19.484;2023-06-14T06:59:49;11.40;99.90
19952;DHT22;10137;49.406;19.484;2023-06-14T07:02:16;11.60;99.90
19952;DHT22;10137;49.406;19.484;2023-06-14T07:04:43;11.70;99.90
19952;DHT22;10137;49.406;19.484;2023-06-14T07:07:11;11.90;99.90
19952;DHT22;10137;49.406;19.484;2023-06-14T07:09:38;12.00;99.90
19952;DHT22;10137;49.406;19.484;2023-06-14T07:12:07;12.10;99.90
19952;DHT22;10137;49.406;19.484;2023-06-14T07:14:34;12.20;99.90
19952;DHT22;10137;49.406;19.484;2023-06-14T07:17:01;12.20;99.90
19952;DHT22;10137;49.406;19.484;2023-06-14T07:19:29;12.30;99.90
19952;DHT22;10137;49.406;19.484;2023-06-14T07:21:57;12.40;99.90
19952;DHT22;10137;49.406;19.484;2023-06-14T07:24:25;12.40;99.90
19952;DHT22;10137;49.406;19.484;2023-06-14T07:26:54;12.80;99.90
19952;DHT22;10137;49.406;19.484;2023-06-14T07:29:21;13.00;99.90
19952;DHT22;10137;49.406;19.484;2023-06-14T07:31:48;13.30;99.90
19952;DHT22;10137;49.406;19.484;2023-06-14T07:34:15;13.50;99.90
19952;DHT22;10137;49.406;19.484;2023-06-14T07:36:43;13.50;99.90
19952;DHT22;10137;49.406;19.484;2023-06-14T07:39:10;13.60;99.90
19952;DHT22;10137;49.406;19.484;2023-06-14T07:41:39;13.70;99.90
19952;DHT22;10137;49.406;19.484;2023-06-14T07:44:06;14.10;99.90
19952;DHT22;10137;49.406;19.484;2023-06-14T07:46:33;14.30;99.90
19952;DHT22;10137;49.406;19.484;2023-06-14T07:49:00;14.50;99.90
19952;DHT22;10137;49.406;19.484;2023-06-14T07:51:27;14.60;99.90
19952;DHT22;10137;49.406;19.484;2023-06-14T07:53:54;14.70;99.90
19952;DHT22;10137;49.406;19.484;2023-06-14T07:56:21;14.80;99.90
19952;DHT22;10137;49.406;19.484;2023-06-14T07:58:50;14.80;99.90
19952;DHT22;10137;49.406;19.484;2023-06-14T08:01:17;14.90;99.90
19952;DHT22;10137;49.406;19.484;2023-06-14T08:03:45;15.00;99.90
19952;DHT22;10137;49.406;19.484;2023-06-14T08:06:12;15.00;99.90
19952;DHT22;10137;49.406;19.484;2023-06-14T08:08:39;15.10;99.90
19952;DHT22;10137;49.406;19.484;2023-06-14T08:11:06;15.10;99.90
19952;DHT22;10137;49.406;19.484;2023-06-14T08:13:33;15.30;99.90
19952;DHT22;10137;49.406;19.484;2023-06-14T08:16:01;15.50;99.90
19952;DHT22;10137;49.406;19.484;2023-06-14T08:18:30;15.50;99.90
19952;DHT22;10137;49.406;19.484;2023-06-14T08:20:57;15.70;99.90
19952;DHT22;10137;49.406;19.484;2023-06-14T08:23:24;15.80;99.90
19952;DHT22;10137;49.406;19.484;2023-06-14T08:25:51;16.00;99.90
19952;DHT22;10137;49.406;19.484;2023-06-14T08:28:18;16.00;99.90
19952;DHT22;10137;49.406;19.484;2023-06-14T08:30:45;16.10;99.90
19952;DHT22;10137;49.406;19.484;2023-06-14T08:33:13;16.20;99.90
19952;DHT22;10137;49.406;19.484;2023-06-14T08:35:41;16.20;99.90
19952;DHT22;10137;49.406;19.484;2023-06-14T08:38:08;16.50;99.90
19952;DHT22;10137;49.406;19.484;2023-06-14T08:40:37;16.50;99.90
19952;DHT22;10137;49.406;19.484;2023-06-14T08:43:04;16.60;99.90
19952;DHT22;10137;49.406;19.484;2023-06-14T08:45:32;16.70;99.90
19952;DHT22;10137;49.406;19.484;2023-06-14T08:47:59;16.70;99.90
19952;DHT22;10137;49.406;19.484;2023-06-14T08:50:28;16.80;99.90
19952;DHT22;10137;49.406;19.484;2023-06-14T08:52:58;16.90;99.90
19952;DHT22;10137;49.406;19.484;2023-06-14T08:55:27;17.00;99.90
19952;DHT22;10137;49.406;19.484;2023-06-14T08:57:56;17.10;99.90
19952;DHT22;10137;49.406;19.484;2023-06-14T09:00:25;17.10;99.90
19952;DHT22;10137;49.406;19.484;2023-06-14T09:02:53;17.40;99.90
19952;DHT22;10137;49.406;19.484;2023-06-14T09:05:23;17.30;99.90
19952;DHT22;10137;49.406;19.484;2023-06-14T09:07:52;17.30;99.90
19952;DHT22;10137;49.406;19.484;2023-06-14T09:10:21;17.10;99.90
19952;DHT22;10137;49.406;19.484;2023-06-14T09:12:48;17.10;99.90
19952;DHT22;10137;49.406;19.484;2023-06-14T09:15:16;17.00;99.90
19952;DHT22;10137;49.406;19.484;2023-06-14T09:17:43;17.10;99.90
19952;DHT22;10137;49.406;19.484;2023-06-14T09:20:10;17.00;99.90
19952;DHT22;10137;49.406;19.484;2023-06-14T09:22:39;16.90;99.90
19952;DHT22;10137;49.406;19.484;2023-06-14T09:25:08;16.90;99.90
19952;DHT22;10137;49.406;19.484;2023-06-14T09:27:36;17.00;99.90
19952;DHT22;10137;49.406;19.484;2023-06-14T09:30:06;17.00;99.90
19952;DHT22;10137;49.406;19.484;2023-06-14T09:32:37;17.10;99.90
19952;DHT22;10137;49.406;19.484;2023-06-14T09:35:05;17.20;99.90
19952;DHT22;10137;49.406;19.484;2023-06-14T09:37:33;17.20;99.90
19952;DHT22;10137;49.406;19.484;2023-06-14T09:40:03;17.20;99.90
19952;DHT22;10137;49.406;19.484;2023-06-14T09:42:38;17.50;99.90
19952;DHT22;10137;49.406;19.484;2023-06-14T09:45:08;17.40;99.90
19952;DHT22;10137;49.406;19.484;2023-06-14T09:47:39;17.70;99.90
19952;DHT22;10137;49.406;19.484;2023-06-14T09:50:11;17.70;99.90
19952;DHT22;10137;49.406;19.484;2023-06-14T09:52:43;17.70;99.90
19952;DHT22;10137;49.406;19.484;2023-06-14T09:55:13;17.60;99.90
19952;DHT22;10137;49.406;19.484;2023-06-14T09:57:44;17.80;99.90
19952;DHT22;10137;49.406;19.484;2023-06-14T10:00:15;17.80;99.90
19952;DHT22;10137;49.406;19.484;2023-06-14T10:02:49;17.80;99.90
19952;DHT22;10137;49.406;19.484;2023-06-14T10:05:21;17.80;99.90
19952;DHT22;10137;49.406;19.484;2023-06-14T10:07:56;17.90;99.90
19952;DHT22;10137;49.406;19.484;2023-06-14T10:10:25;17.80;99.90
19952;DHT22;10137;49.406;19.484;2023-06-14T10:12:54;17.80;99.90
19952;DHT22;10137;49.406;19.484;2023-06-14T10:15:29;17.90;99.90
19952;DHT22;10137;49.406;19.484;2023-06-14T10:18:01;18.10;99.90
19952;DHT22;10137;49.406;19.484;2023-06-14T10:20:33;18.20;99.90
19952;DHT22;10137;49.406;19.484;2023-06-14T10:23:07;18.30;97.30
19952;DHT22;10137;49.406;19.484;2023-06-14T10:25:35;18.30;98.30
19952;DHT22;10137;49.406;19.484;2023-06-14T10:28:14;18.30;97.20
19952;DHT22;10137;49.406;19.484;2023-06-14T10:31:06;18.20;97.00
19952;DHT22;10137;49.406;19.484;2023-06-14T10:33:34;18.40;97.50
19952;DHT22;10137;49.406;19.484;2023-06-14T10:36:23;18.40;96.80
19952;DHT22;10137;49.406;19.484;2023-06-14T10:39:05;18.40;96.40
19952;DHT22;10137;49.406;19.484;2023-06-14T10:41:36;18.40;94.90
19952;DHT22;10137;49.406;19.484;2023-06-14T10:44:42;18.40;94.80
19952;DHT22;10137;49.406;19.484;2023-06-14T10:47:21;18.40;95.60
19952;DHT22;10137;49.406;19.484;2023-06-14T10:49:51;18.20;94.40
19952;DHT22;10137;49.406;19.484;2023-06-14T10:52:25;18.10;94.50
19952;DHT22;10137;49.406;19.484;2023-06-14T10:55:01;18.10;96.30
19952;DHT22;10137;49.406;19.484;2023-06-14T10:57:32;18.10;95.80
19952;DHT22;10137;49.406;19.484;2023-06-14T11:00:03;17.90;95.00
19952;DHT22;10137;49.406;19.484;2023-06-14T11:02:52;17.90;95.60
19952;DHT22;10137;49.406;19.484;2023-06-14T11:05:25;18.00;96.70
19952;DHT22;10137;49.406;19.484;2023-06-14T11:08:10;18.00;96.60
19952;DHT22;10137;49.406;19.484;2023-06-14T11:10:41;18.10;96.90
19952;DHT22;10137;49.406;19.484;2023-06-14T11:13:12;18.10;96.10
19952;DHT22;10137;49.406;19.484;2023-06-14T11:15:44;18.10;95.70
19952;DHT22;10137;49.406;19.484;2023-06-14T11:18:14;18.20;98.10
19952;DHT22;10137;49.406;19.484;2023-06-14T11:20:46;18.30;98.10
19952;DHT22;10137;49.406;19.484;2023-06-14T11:23:14;18.30;97.60
19952;DHT22;10137;49.406;19.484;2023-06-14T11:25:43;18.20;97.60
19952;DHT22;10137;49.406;19.484;2023-06-14T11:28:12;18.30;96.50
19952;DHT22;10137;49.406;19.484;2023-06-14T11:30:39;18.10;96.60
19952;DHT22;10137;49.406;19.484;2023-06-14T11:33:09;18.10;96.60
19952;DHT22;10137;49.406;19.484;2023-06-14T11:35:37;18.00;96.40
19952;DHT22;10137;49.406;19.484;2023-06-14T11:38:04;18.00;96.80
19952;DHT22;10137;49.406;19.484;2023-06-14T11:40:33;18.00;96.90
19952;DHT22;10137;49.406;19.484;2023-06-14T11:43:01;18.00;98.00
19952;DHT22;10137;49.406;19.484;2023-06-14T11:45:30;17.90;97.60
19952;DHT22;10137;49.406;19.484;2023-06-14T11:47:59;18.00;98.80
19952;DHT22;10137;49.406;19.484;2023-06-14T11:50:28;18.00;99.10
19952;DHT22;10137;49.406;19.484;2023-06-14T11:52:57;18.00;98.90
19952;DHT22;10137;49.406;19.484;2023-06-14T11:55:36;18.00;97.70
19952;DHT22;10137;49.406;19.484;2023-06-14T11:58:05;18.00;97.40
19952;DHT22;10137;49.406;19.484;2023-06-14T12:00:35;18.00;98.60
19952;DHT22;10137;49.406;19.484;2023-06-14T12:03:04;18.20;99.90
19952;DHT22;10137;49.406;19.484;2023-06-14T12:05:36;18.10;99.90
19952;DHT22;10137;49.406;19.484;2023-06-14T12:08:06;18.20;99.90
19952;DHT22;10137;49.406;19.484;2023-06-14T12:10:42;18.30;99.90
19952;DHT22;10137;49.406;19.484;2023-06-14T12:13:11;18.40;99.90
19952;DHT22;10137;49.406;19.484;2023-06-14T12:15:39;18.30;99.90
19952;DHT22;10137;49.406;19.484;2023-06-14T12:18:10;18.30;99.90
19952;DHT22;10137;49.406;19.484;2023-06-14T12:20:42;18.40;99.90
19952;DHT22;10137;49.406;19.484;2023-06-14T12:23:13;18.40;99.90
19952;DHT22;10137;49.406;19.484;2023-06-14T12:25:41;18.40;99.90
19952;DHT22;10137;49.406;19.484;2023-06-14T12:28:13;18.50;99.90
19952;DHT22;10137;49.406;19.484;2023-06-14T12:30:42;18.50;99.90
19952;DHT22;10137;49.406;19.484;2023-06-14T12:33:09;18.40;99.90
19952;DHT22;10137;49.406;19.484;2023-06-14T12:35:39;18.30;99.90
19952;DHT22;10137;49.406;19.484;2023-06-14T12:38:10;18.30;99.90
19952;DHT22;10137;49.406;19.484;2023-06-14T12:40:39;18.20;99.90
19952;DHT22;10137;49.406;19.484;2023-06-14T12:43:09;18.20;99.90
19952;DHT22;10137;49.406;19.484;2023-06-14T12:45:39;18.10;99.90
19952;DHT22;10137;49.406;19.484;2023-06-14T12:48:08;18.00;99.90
19952;DHT22;10137;49.406;19.484;2023-06-14T12:50:44;17.90;99.90
19952;DHT22;10137;49.406;19.484;2023-06-14T12:53:12;17.90;99.90
19952;DHT22;10137;49.406;19.484;2023-06-14T12:55:42;17.90;99.90
19952;DHT22;10137;49.406;19.484;2023-06-14T12:58:10;17.90;99.90
19952;DHT22;10137;49.406;19.484;2023-06-14T13:00:39;17.90;99.90
19952;DHT22;10137;49.406;19.484;2023-06-14T13:03:07;17.90;99.90
19952;DHT22;10137;49.406;19.484;2023-06-14T13:05:35;17.50;99.90
19952;DHT22;10137;49.406;19.484;2023-06-14T13:08:05;16.80;99.90
19952;DHT22;10137;49.406;19.484;2023-06-14T13:10:37;16.70;99.90
19952;DHT22;10137;49.406;19.484;2023-06-14T13:13:05;16.50;99.90
19952;DHT22;10137;49.406;19.484;2023-06-14T13:15:34;16.20;99.90
19952;DHT22;10137;49.406;19.484;2023-06-14T13:18:02;15.80;99.90
19952;DHT22;10137;49.406;19.484;2023-06-14T13:20:30;15.50;99.90
19952;DHT22;10137;49.406;19.484;2023-06-14T13:22:59;15.50;99.90
19952;DHT22;10137;49.406;19.484;2023-06-14T13:25:31;15.40;99.90
19952;DHT22;10137;49.406;19.484;2023-06-14T13:28:00;15.20;99.90
19952;DHT22;10137;49.406;19.484;2023-06-14T13:30:28;15.20;99.90
19952;DHT22;10137;49.406;19.484;2023-06-14T13:32:55;15.30;99.90
19952;DHT22;10137;49.406;19.484;2023-06-14T13:35:23;15.50;99.90
19952;DHT22;10137;49.406;19.484;2023-06-14T13:37:50;15.60;99.90
19952;DHT22;10137;49.406;19.484;2023-06-14T13:40:18;15.80;99.90
19952;DHT22;10137;49.406;19.484;2023-06-14T13:42:47;15.90;99.90
19952;DHT22;10137;49.406;19.484;2023-06-14T13:45:15;16.00;99.90
19952;DHT22;10137;49.406;19.484;2023-06-14T13:47:42;16.10;99.90
19952;DHT22;10137;49.406;19.484;2023-06-14T13:50:10;16.10;99.90
19952;DHT22;10137;49.406;19.484;2023-06-14T13:52:38;16.20;99.90
19952;DHT22;10137;49.406;19.484;2023-06-14T13:55:05;16.10;99.90
19952;DHT22;10137;49.406;19.484;2023-06-14T13:57:33;16.20;99.90
19952;DHT22;10137;49.406;19.484;2023-06-14T14:00:01;16.10;99.90
19952;DHT22;10137;49.406;19.484;2023-06-14T14:02:29;16.10;99.90
19952;DHT22;10137;49.406;19.484;2023-06-14T14:04:56;16.00;99.90
19952;DHT22;10137;49.406;19.484;2023-06-14T14:07:23;16.00;99.90
19952;DHT22;10137;49.406;19.484;2023-06-14T14:09:50;15.90;99.90
19952;DHT22;10137;49.406;19.484;2023-06-14T14:12:18;15.60;99.90
19952;DHT22;10137;49.406;19.484;2023-06-14T14:14:45;15.40;99.90
19952;DHT22;10137;49.406;19.484;2023-06-14T14:17:14;15.40;99.90
19952;DHT22;10137;49.406;19.484;2023-06-14T14:19:41;15.30;99.90
19952;DHT22;10137;49.406;19.484;2023-06-14T14:22:08;15.20;99.90
19952;DHT22;10137;49.406;19.484;2023-06-14T14:24:35;15.20;99.90
19952;DHT22;10137;49.406;19.484;2023-06-14T14:27:03;15.10;99.90
19952;DHT22;10137;49.406;19.484;2023-06-14T14:29:30;14.90;99.90
19952;DHT22;10137;49.406;19.484;2023-06-14T14:31:57;15.00;99.90
19952;DHT22;10137;49.406;19.484;2023-06-14T14:34:25;15.10;99.90
19952;DHT22;10137;49.406;19.484;2023-06-14T14:36:53;15.10;99.90
19952;DHT22;10137;49.406;19.484;2023-06-14T14:39:20;15.20;99.90
19952;DHT22;10137;49.406;19.484;2023-06-14T14:41:47;15.20;99.90
19952;DHT22;10137;49.406;19.484;2023-06-14T14:44:14;15.20;99.90
19952;DHT22;10137;49.406;19.484;2023-06-14T14:46:41;15.20;99.90
19952;DHT22;10137;49.406;19.484;2023-06-14T14:49:09;15.30;99.90
19952;DHT22;10137;49.406;19.484;2023-06-14T14:51:37;15.20;99.90
19952;DHT22;10137;49.406;19.484;2023-06-14T14:54:05;15.20;99.90
19952;DHT22;10137;49.406;19.484;2023-06-14T14:56:33;15.20;99.90
19952;DHT22;10137;49.406;19.484;2023-06-14T14:59:03;15.20;99.90
19952;DHT22;10137;49.406;19.484;2023-06-14T15:01:30;15.20;99.90
19952;DHT22;10137;49.406;19.484;2023-06-14T15:03:57;15.20;99.90
19952;DHT22;10137;49.406;19.484;2023-06-14T15:06:24;15.10;99.90
19952;DHT22;10137;49.406;19.484;2023-06-14T15:08:53;15.20;99.90
19952;DHT22;10137;49.406;19.484;2023-06-14T15:11:20;15.30;99.90
19952;DHT22;10137;49.406;19.484;2023-06-14T15:13:47;15.40;99.90
19952;DHT22;10137;49.406;19.484;2023-06-14T15:16:14;15.50;99.90
19952;DHT22;10137;49.406;19.484;2023-06-14T15:18:41;15.40;99.90
19952;DHT22;10137;49.406;19.484;2023-06-14T15:21:08;15.60;99.90
19952;DHT22;10137;49.406;19.484;2023-06-14T15:23:35;15.60;99.90
19952;DHT22;10137;49.406;19.484;2023-06-14T15:26:04;15.60;99.90
19952;DHT22;10137;49.406;19.484;2023-06-14T15:28:31;15.60;99.90
19952;DHT22;10137;49.406;19.484;2023-06-14T15:30:58;15.70;99.90
19952;DHT22;10137;49.406;19.484;2023-06-14T15:33:26;15.70;99.90